Time;durP1;ratioP1;P1;durP2;ratioP2;P2;SDS_P1;SDS_P2;PMS_P1;PMS_P2;Temp;Humidity;BMP_temperature;BMP_pressure;BME280_temperature;BME280_humidity;BME280_pressure;Samples;Min_cycle;Max_cycle;Signal;HPM_P1;HPM_P2
2023/01/25 00:01:46;;;;;;;13.98;9.27;;;;;;;15.07;51.55;101780.25;5072663;28;20041;-54
2023/01/25 00:04:14;;;;;;;13.48;9.65;;;;;;;15.03;51.75;101781.34;5072718;28;20040;-52
2023/01/25 00:06:42;;;;;;;12.27;9.43;;;;;;;15.00;51.79;101784.22;5072477;28;20044;-52
2023/01/25 00:09:12;;;;;;;12.77;9.38;;;;;;;14.97;51.61;101791.59;5072408;28;20094;-53
2023/01/25 00:11:40;;;;;;;12.70;9.02;;;;;;;14.95;51.74;101797.00;5072409;28;20063;-53
2023/01/25 00:14:10;;;;;;;12.43;9.50;;;;;;;14.91;51.79;101795.44;5072312;28;20047;-52
2023/01/25 00:16:38;;;;;;;12.85;9.27;;;;;;;14.90;51.71;101804.47;5072504;28;20048;-52
2023/01/25 00:19:09;;;;;;;14.13;9.40;;;;;;;14.82;51.79;101791.44;5104658;28;20044;-52
2023/01/25 00:21:38;;;;;;;12.00;9.13;;;;;;;14.80;51.85;101790.66;5072247;28;20048;-52
2023/01/25 00:24:07;;;;;;;13.50;9.82;;;;;;;14.80;51.78;101795.16;5072214;28;20052;-53
2023/01/25 00:26:36;;;;;;;13.23;9.75;;;;;;;14.76;51.71;101791.75;5072052;28;20070;-52
2023/01/25 00:29:05;;;;;;;13.38;9.30;;;;;;;14.73;51.67;101788.38;5071949;28;20056;-54
2023/01/25 00:31:41;;;;;;;12.70;9.57;;;;;;;14.71;51.71;101791.16;5072144;28;20396;-52
2023/01/25 00:34:44;;;;;;;13.43;10.10;;;;;;;14.66;51.57;101785.13;5072093;28;20041;-54
2023/01/25 00:37:29;;;;;;;12.50;8.95;;;;;;;14.60;51.78;101785.47;5071565;28;20171;-53
2023/01/25 00:39:57;;;;;;;12.93;9.38;;;;;;;14.59;51.84;101789.13;5071168;28;20394;-54
2023/01/25 00:42:27;;;;;;;14.02;9.25;;;;;;;14.58;51.69;101787.38;5071985;28;20044;-52
2023/01/25 00:44:58;;;;;;;13.95;9.82;;;;;;;14.56;51.80;101786.56;5071868;28;20079;-54
2023/01/25 00:47:26;;;;;;;12.68;9.07;;;;;;;14.53;51.87;101786.75;5071803;28;20478;-52
2023/01/25 00:50:00;;;;;;;12.68;9.07;;;;;;;14.51;51.82;101792.19;5071884;28;20052;-53
2023/01/25 00:52:28;;;;;;;14.38;9.65;;;;;;;14.49;51.70;101793.25;5071825;28;20044;-53
2023/01/25 00:54:57;;;;;;;13.95;9.65;;;;;;;14.45;51.83;101786.28;5071821;28;20461;-53
2023/01/25 00:57:25;;;;;;;15.27;9.80;;;;;;;14.44;51.83;101803.31;5070959;28;20052;-52
2023/01/25 00:59:55;;;;;;;11.98;8.85;;;;;;;14.42;51.86;101802.53;5071670;28;20117;-53
2023/01/25 01:02:23;;;;;;;12.55;8.88;;;;;;;14.40;51.77;101804.41;5071690;28;20055;-53
2023/01/25 01:04:51;;;;;;;13.60;9.60;;;;;;;14.37;51.96;101804.56;5071726;28;20055;-53
2023/01/25 01:07:20;;;;;;;12.40;9.23;;;;;;;14.31;51.95;101809.31;5071847;28;20424;-56
2023/01/25 01:09:48;;;;;;;13.45;9.20;;;;;;;14.27;51.88;101798.78;5071685;28;20048;-55
2023/01/25 01:12:16;;;;;;;12.20;9.23;;;;;;;14.29;51.87;101813.03;5071764;28;20076;-54
2023/01/25 01:14:44;;;;;;;14.35;9.52;;;;;;;14.27;51.88;101813.06;5071591;28;20119;-54
2023/01/25 01:17:14;;;;;;;13.77;9.57;;;;;;;14.24;51.87;101804.31;5071606;28;20036;-54
2023/01/25 01:19:42;;;;;;;13.30;9.27;;;;;;;14.22;51.76;101807.09;5071634;28;20115;-53
2023/01/25 01:22:10;;;;;;;13.65;9.55;;;;;;;14.19;51.91;101809.94;5071543;28;20401;-54
2023/01/25 01:24:39;;;;;;;12.20;8.98;;;;;;;14.17;52.11;101809.13;5071594;28;20051;-55
2023/01/25 01:27:07;;;;;;;14.25;10.00;;;;;;;14.16;51.96;101815.44;5071246;28;20056;-54
2023/01/25 01:29:35;;;;;;;12.48;9.40;;;;;;;14.14;51.92;101817.34;5071525;28;20068;-52
2023/01/25 01:32:03;;;;;;;13.52;9.40;;;;;;;14.11;51.74;101813.94;5071520;28;20044;-52
2023/01/25 01:34:33;;;;;;;12.25;9.23;;;;;;;14.09;51.83;101816.72;5071553;28;20048;-55
2023/01/25 01:37:01;;;;;;;14.02;9.95;;;;;;;14.06;51.87;101808.81;5071484;28;20083;-53
2023/01/25 01:39:29;;;;;;;12.70;9.80;;;;;;;14.05;52.15;101809.75;5071435;28;20068;-52
2023/01/25 01:41:58;;;;;;;11.82;9.30;;;;;;;14.03;51.99;101808.97;5071280;28;20102;-54
2023/01/25 01:44:46;;;;;;;13.43;9.32;;;;;;;13.99;51.96;101810.03;5071451;28;20075;-53
2023/01/25 01:47:20;;;;;;;15.13;9.80;;;;;;;13.97;51.93;101806.56;5071342;28;20044;-57
2023/01/25 01:49:54;;;;;;;12.75;8.93;;;;;;;13.97;51.98;101811.94;5071281;28;20040;-54
2023/01/25 01:52:27;;;;;;;12.35;9.40;;;;;;;13.91;51.98;101801.53;5071103;28;20067;-55
2023/01/25 01:55:00;;;;;;;13.60;9.45;;;;;;;13.90;52.07;101794.44;5071478;28;20438;-53
2023/01/25 01:57:32;;;;;;;14.43;9.50;;;;;;;13.89;52.02;101796.22;5071263;28;20044;-54
2023/01/25 02:00:04;;;;;;;14.00;9.65;;;;;;;13.86;52.09;101798.19;5071284;28;20049;-54
2023/01/25 02:02:35;;;;;;;14.20;9.95;;;;;;;13.86;51.93;101795.50;5071154;28;20072;-55
2023/01/25 02:05:09;;;;;;;13.68;9.68;;;;;;;13.84;52.06;101794.72;5071144;28;20072;-54
2023/01/25 02:07:38;;;;;;;13.73;9.52;;;;;;;13.82;51.88;101791.25;5071561;28;20574;-55
2023/01/25 02:10:09;;;;;;;15.23;9.80;;;;;;;13.80;51.91;101798.47;5074708;28;20651;-54
2023/01/25 02:12:41;;;;;;;14.68;9.43;;;;;;;13.77;51.90;101793.28;5074815;28;20048;-54
2023/01/25 02:15:10;;;;;;;13.68;9.25;;;;;;;13.74;52.19;101800.53;5074646;28;20123;-54
2023/01/25 02:17:40;;;;;;;14.38;10.27;;;;;;;13.73;52.11;101800.63;5074656;28;20052;-55
2023/01/25 02:20:23;;;;;;;14.70;9.95;;;;;;;13.72;52.14;101796.19;5074767;28;20052;-53
2023/01/25 02:22:59;;;;;;;13.07;8.98;;;;;;;13.70;52.00;101800.75;5074611;28;20048;-55
2023/01/25 02:25:28;;;;;;;14.43;9.90;;;;;;;13.68;52.13;101798.16;5074540;28;20048;-53
2023/01/25 02:28:01;;;;;;;12.23;9.25;;;;;;;13.65;52.11;101790.25;5074121;28;20529;-55
2023/01/25 02:30:31;;;;;;;14.60;10.07;;;;;;;13.63;52.21;101788.59;5074558;28;20044;-54
2023/01/25 02:32:59;;;;;;;13.25;9.38;;;;;;;13.58;52.09;101790.63;5074353;28;20048;-54
2023/01/25 02:35:38;;;;;;;14.35;9.90;;;;;;;13.59;52.19;101790.53;5074273;28;20386;-55
2023/01/25 02:38:07;;;;;;;13.27;9.27;;;;;;;13.57;52.08;101781.72;5074245;28;20040;-55
2023/01/25 02:40:44;;;;;;;13.95;10.20;;;;;;;13.53;52.17;101769.41;5074112;28;20045;-56
2023/01/25 02:43:12;;;;;;;14.30;10.10;;;;;;;13.54;52.05;101772.97;5074155;28;20051;-55
2023/01/25 02:45:40;;;;;;;13.63;9.00;;;;;;;13.50;52.32;101757.94;5074157;28;20049;-55
2023/01/25 02:48:09;;;;;;;14.10;9.93;;;;;;;13.50;52.13;101769.53;5074047;28;20044;-53
2023/01/25 02:50:37;;;;;;;14.63;9.60;;;;;;;13.47;52.24;101758.97;5074078;28;20493;-55
2023/01/25 02:53:06;;;;;;;13.02;8.93;;;;;;;13.47;52.14;101764.34;5073949;28;20047;-54
2023/01/25 02:55:34;;;;;;;13.07;9.55;;;;;;;13.43;51.98;101757.41;5074000;28;20485;-54
2023/01/25 02:58:04;;;;;;;13.32;9.15;;;;;;;13.43;52.22;101769.00;5073927;28;20401;-53
2023/01/25 03:00:32;;;;;;;13.30;9.32;;;;;;;13.41;52.22;101764.63;5073894;28;20102;-53
2023/01/25 03:03:00;;;;;;;14.30;9.63;;;;;;;13.39;52.25;101763.84;5073819;28;20520;-54
2023/01/25 03:05:29;;;;;;;14.82;9.80;;;;;;;13.37;51.94;101768.41;5073756;28;20375;-52
2023/01/25 03:07:57;;;;;;;13.07;9.25;;;;;;;13.36;52.33;101761.31;5073740;28;20432;-53
2023/01/25 03:10:26;;;;;;;14.45;9.77;;;;;;;13.33;52.35;101762.34;5073920;28;20069;-53
2023/01/25 03:12:55;;;;;;;13.85;10.05;;;;;;;13.34;52.41;101764.06;5073641;28;20041;-53
2023/01/25 03:15:24;;;;;;;14.48;9.73;;;;;;;13.31;52.21;101764.19;5073763;28;20110;-52
2023/01/25 03:17:52;;;;;;;13.75;9.55;;;;;;;13.30;52.22;101761.59;5073465;28;20490;-54
2023/01/25 03:20:24;;;;;;;12.77;9.63;;;;;;;13.27;52.16;101756.38;5072589;28;20136;-54
2023/01/25 03:22:53;;;;;;;14.02;9.68;;;;;;;13.26;52.39;101754.66;5073629;28;20052;-52
2023/01/25 03:25:21;;;;;;;12.38;9.40;;;;;;;13.24;52.30;101746.69;5073375;28;20079;-53
2023/01/25 03:27:49;;;;;;;14.30;9.80;;;;;;;13.22;52.08;101742.31;5073266;28;20060;-54
2023/01/25 03:30:18;;;;;;;14.13;10.07;;;;;;;13.22;52.17;101751.25;5073171;28;20543;-53
2023/01/25 03:32:47;;;;;;;14.40;9.95;;;;;;;13.19;52.23;101759.41;5073140;28;20497;-52
2023/01/25 03:35:15;;;;;;;12.82;9.52;;;;;;;13.19;52.15;101756.75;5073145;28;20044;-53
2023/01/25 03:37:43;;;;;;;14.18;9.85;;;;;;;13.17;52.02;101756.78;5073134;28;20115;-55
2023/01/25 03:40:13;;;;;;;14.02;9.85;;;;;;;13.11;52.19;101750.84;5073164;28;20153;-54
2023/01/25 03:42:42;;;;;;;14.00;9.85;;;;;;;13.13;52.29;101765.94;5073105;28;20076;-52
2023/01/25 03:45:13;;;;;;;14.20;10.50;;;;;;;13.12;52.45;101758.84;5072893;28;20048;-54
2023/01/25 03:47:41;;;;;;;13.45;9.43;;;;;;;13.10;52.26;101754.47;5072842;28;20490;-54
2023/01/25 03:50:11;;;;;;;14.70;9.75;;;;;;;13.10;52.38;101759.81;5072779;28;20080;-56
2023/01/25 03:53:29;;;;;;;14.13;9.88;;;;;;;13.08;51.93;101762.56;5072839;28;20120;-53
2023/01/25 03:55:59;;;;;;;15.75;10.23;;;;;;;13.07;52.18;101750.13;5072659;28;20070;-52
2023/01/25 03:58:27;;;;;;;13.82;9.40;;;;;;;13.05;52.37;101746.66;5072773;28;20048;-54
2023/01/25 04:00:57;;;;;;;13.88;9.57;;;;;;;13.03;52.28;101753.91;5072740;28;20047;-55
2023/01/25 04:03:26;;;;;;;13.50;9.13;;;;;;;13.00;52.04;101755.84;5072626;28;20127;-52
2023/01/25 04:05:59;;;;;;;14.05;9.90;;;;;;;12.99;52.15;101752.28;5072559;28;20077;-53
2023/01/25 04:08:28;;;;;;;14.80;10.18;;;;;;;12.99;51.91;101752.28;5072443;28;20098;-52
2023/01/25 04:11:00;;;;;;;12.93;9.38;;;;;;;12.97;52.15;101748.81;5072410;28;20040;-54
2023/01/25 04:13:28;;;;;;;14.50;9.70;;;;;;;12.92;52.36;101756.19;5072388;28;20041;-54
2023/01/25 04:15:56;;;;;;;13.23;9.45;;;;;;;12.89;52.23;101759.88;5072269;28;20504;-52
2023/01/25 04:18:24;;;;;;;13.88;9.70;;;;;;;12.93;52.17;101763.28;5072364;28;20136;-54
2023/01/25 04:20:53;;;;;;;14.45;9.57;;;;;;;12.89;52.17;101759.88;5072224;28;20355;-54
2023/01/25 04:23:25;;;;;;;14.27;9.73;;;;;;;12.88;52.19;101760.81;5072283;28;20045;-53
2023/01/25 04:25:54;;;;;;;12.73;9.60;;;;;;;12.87;52.13;101766.25;5072179;28;20115;-56
2023/01/25 04:28:22;;;;;;;14.02;9.73;;;;;;;12.87;52.18;101771.59;5072075;28;20110;-54
2023/01/25 04:30:51;;;;;;;12.40;9.55;;;;;;;12.86;52.14;101764.50;5072080;28;20071;-54
2023/01/25 04:33:19;;;;;;;13.32;9.32;;;;;;;12.83;51.97;101762.81;5072047;28;20054;-54
2023/01/25 04:35:47;;;;;;;13.48;9.40;;;;;;;12.83;52.02;101775.34;5072082;28;20051;-54
2023/01/25 04:38:16;;;;;;;14.38;10.15;;;;;;;12.84;52.05;101774.44;5072067;28;20064;-54
2023/01/25 04:40:45;;;;;;;13.25;9.73;;;;;;;12.84;52.14;101769.09;5071927;28;20040;-53
2023/01/25 04:43:14;;;;;;;14.27;9.35;;;;;;;12.87;52.55;101769.78;5071891;28;20045;-54
2023/01/25 04:45:42;;;;;;;13.93;9.20;;;;;;;12.91;52.56;101751.78;5071849;28;20052;-52
2023/01/25 04:48:13;;;;;;;14.40;9.85;;;;;;;13.02;52.92;101765.53;5071918;28;20529;-53
2023/01/25 04:50:42;;;;;;;13.02;9.23;;;;;;;13.13;52.86;101762.38;5071796;28;20455;-54
2023/01/25 04:53:11;;;;;;;12.43;9.18;;;;;;;13.21;52.79;101762.91;5071892;28;20470;-53
2023/01/25 04:55:40;;;;;;;12.50;9.32;;;;;;;13.29;52.70;101755.38;5071878;28;20405;-53
2023/01/25 04:58:09;;;;;;;12.77;9.02;;;;;;;13.40;52.70;101757.53;5071774;28;20406;-55
2023/01/25 05:00:38;;;;;;;11.75;8.88;;;;;;;13.49;52.57;101757.09;5071635;28;20052;-54
2023/01/25 05:03:06;;;;;;;12.07;8.48;;;;;;;13.59;52.60;101753.00;5071890;28;20044;-54
2023/01/25 05:05:34;;;;;;;12.27;9.30;;;;;;;13.66;52.27;101757.13;5071772;28;20040;-52
2023/01/25 05:08:02;;;;;;;12.30;8.95;;;;;;;13.78;52.58;101757.47;5071634;28;20040;-53
2023/01/25 05:10:31;;;;;;;12.05;8.68;;;;;;;13.85;52.38;101765.13;5071608;28;20051;-54
2023/01/25 05:12:59;;;;;;;12.05;8.55;;;;;;;13.95;52.31;101763.72;5071559;28;20386;-55
2023/01/25 05:15:31;;;;;;;12.52;9.20;;;;;;;14.06;52.10;101762.31;5071768;28;20055;-54
2023/01/25 05:17:59;;;;;;;10.93;8.43;;;;;;;14.14;52.15;101758.31;5071708;28;20470;-54
2023/01/25 05:20:28;;;;;;;10.93;7.95;;;;;;;14.20;51.96;101754.44;5071411;28;20094;-52
2023/01/25 05:22:57;;;;;;;10.93;8.27;;;;;;;14.32;52.00;101762.72;5071568;28;20048;-52
2023/01/25 05:28:10;;;;;;;12.30;8.43;;;;;;;14.51;51.78;101764.47;5071260;28;20056;-54
2023/01/25 05:30:40;;;;;;;11.45;8.30;;;;;;;14.59;51.64;101751.53;5071154;28;20408;-52
2023/01/25 05:33:08;;;;;;;11.10;8.38;;;;;;;14.73;51.59;101766.88;5071488;28;20466;-51
2023/01/25 05:35:37;;;;;;;11.55;8.45;;;;;;;14.81;51.46;101776.28;5071453;28;20123;-54
2023/01/25 05:38:05;;;;;;;12.27;8.85;;;;;;;14.87;51.49;101775.97;5071245;28;20052;-54
2023/01/25 05:40:34;;;;;;;13.07;9.10;;;;;;;14.93;51.41;101776.56;5071309;28;20052;-54
2023/01/25 05:43:02;;;;;;;10.57;7.85;;;;;;;14.94;51.30;101765.72;5072358;28;20049;-52
2023/01/25 05:45:30;;;;;;;10.75;8.02;;;;;;;14.98;51.21;101761.06;5075411;28;20132;-53
2023/01/25 05:48:00;;;;;;;10.68;7.82;;;;;;;15.02;51.21;101755.44;5075225;28;20041;-54
2023/01/25 05:50:30;;;;;;;9.68;7.43;;;;;;;15.06;51.26;101764.22;5074974;28;20501;-52
2023/01/25 05:52:58;;;;;;;11.40;8.20;;;;;;;15.07;51.09;101757.88;5075054;28;20055;-54
2023/01/25 05:55:26;;;;;;;10.63;8.00;;;;;;;15.09;51.00;101762.22;5074986;28;20048;-52
2023/01/25 05:57:55;;;;;;;10.82;7.65;;;;;;;15.13;51.07;101762.91;5074914;28;20434;-52
2023/01/25 06:00:24;;;;;;;10.40;7.75;;;;;;;15.18;51.08;101756.31;5074979;28;20036;-54
2023/01/25 06:02:52;;;;;;;11.48;8.60;;;;;;;15.25;51.01;101759.56;5074853;28;20058;-53
2023/01/25 06:05:21;;;;;;;10.77;7.57;;;;;;;15.27;51.06;101759.47;5074779;28;20045;-52
2023/01/25 06:07:49;;;;;;;10.10;7.50;;;;;;;15.31;50.95;101767.25;5074815;28;20052;-52
2023/01/25 06:10:18;;;;;;;10.73;7.80;;;;;;;15.31;50.83;101771.75;5074653;28;20056;-53
2023/01/25 06:12:46;;;;;;;10.02;7.85;;;;;;;15.30;50.75;101775.41;5074673;28;20482;-53
2023/01/25 06:15:14;;;;;;;11.10;8.13;;;;;;;15.28;50.85;101767.44;5074483;28;20075;-52
2023/01/25 06:17:42;;;;;;;11.65;8.02;;;;;;;15.27;50.85;101773.78;5074368;28;20064;-51
2023/01/25 06:20:12;;;;;;;10.73;7.97;;;;;;;15.23;50.87;101774.88;5074327;28;20054;-52
2023/01/25 06:22:42;;;;;;;10.65;7.55;;;;;;;15.21;50.82;101787.53;5074544;28;20045;-51
2023/01/25 06:25:10;;;;;;;10.30;7.28;;;;;;;15.15;50.77;101778.00;5074377;28;20094;-53
2023/01/25 06:27:39;;;;;;;10.68;7.88;;;;;;;15.13;50.86;101787.94;5073864;28;20079;-51
2023/01/25 06:30:10;;;;;;;10.73;7.72;;;;;;;15.12;50.76;101788.03;5074136;28;20397;-52
2023/01/25 06:32:41;;;;;;;10.55;7.75;;;;;;;15.08;50.80;101791.88;5074199;28;20060;-51
2023/01/25 06:35:09;;;;;;;11.27;7.65;;;;;;;15.03;50.76;101794.78;5074252;28;20406;-52
2023/01/25 06:37:38;;;;;;;11.50;8.45;;;;;;;14.97;50.82;101789.75;5074194;28;20406;-52
2023/01/25 06:40:09;;;;;;;10.90;8.00;;;;;;;14.94;50.96;101789.03;5073942;28;20041;-53
2023/01/25 06:42:41;;;;;;;12.02;7.57;;;;;;;14.92;50.83;101799.00;5073909;28;20084;-51
2023/01/25 06:45:10;;;;;;;11.93;8.10;;;;;;;14.86;50.73;101798.41;5072267;28;20083;-53
2023/01/25 06:47:40;;;;;;;12.20;8.20;;;;;;;14.82;50.74;101793.25;5073915;28;20072;-51
2023/01/25 06:50:10;;;;;;;11.90;8.05;;;;;;;14.78;50.75;101789.88;5073582;28;20047;-52
2023/01/25 06:52:40;;;;;;;9.77;7.80;;;;;;;14.71;50.65;101788.47;5073860;28;20063;-52
2023/01/25 06:55:12;;;;;;;10.48;7.65;;;;;;;14.69;50.75;101787.69;5072311;28;20045;-53
2023/01/25 06:57:41;;;;;;;11.45;8.18;;;;;;;14.65;50.58;101791.47;5073620;28;20509;-54
2023/01/25 07:00:11;;;;;;;11.25;7.93;;;;;;;14.61;50.50;101784.53;5073630;28;20052;-52
2023/01/25 07:02:42;;;;;;;11.55;8.27;;;;;;;14.56;50.56;101791.94;5073866;28;20051;-53
2023/01/25 07:05:10;;;;;;;12.02;8.43;;;;;;;14.51;50.44;101789.50;5073604;28;20044;-53
2023/01/25 07:07:39;;;;;;;11.60;7.97;;;;;;;14.48;50.44;101794.19;5073580;28;20456;-52
2023/01/25 07:10:10;;;;;;;11.93;8.20;;;;;;;14.44;50.24;101796.13;5073193;28;20683;-53
2023/01/25 07:12:40;;;;;;;11.63;8.05;;;;;;;14.41;50.32;101795.41;5073291;28;20112;-56
2023/01/25 07:15:09;;;;;;;11.68;8.10;;;;;;;14.35;50.38;101785.84;5073300;28;20094;-52
2023/01/25 07:17:37;;;;;;;10.77;8.73;;;;;;;14.30;50.34;101783.41;5073315;28;20040;-51
2023/01/25 07:20:07;;;;;;;11.35;8.38;;;;;;;14.29;50.20;101789.72;5073269;28;20102;-53
2023/01/25 07:22:36;;;;;;;11.80;8.57;;;;;;;14.25;50.37;101785.44;5073206;28;20401;-52
2023/01/25 07:25:05;;;;;;;12.57;9.00;;;;;;;14.21;50.29;101783.88;5073319;28;20049;-54
2023/01/25 07:27:36;;;;;;;12.15;8.77;;;;;;;14.19;50.28;101790.28;5073165;28;20174;-52
2023/01/25 07:30:05;;;;;;;11.52;8.45;;;;;;;14.18;50.42;101786.69;5073142;28;20083;-54
2023/01/25 07:32:36;;;;;;;11.45;8.23;;;;;;;14.17;50.54;101786.78;5073202;28;20072;-53
2023/01/25 07:35:05;;;;;;;11.68;8.45;;;;;;;14.18;50.75;101791.22;5073018;28;20048;-52
2023/01/25 07:37:33;;;;;;;11.57;8.10;;;;;;;14.23;50.73;101792.72;5073321;28;20040;-53
2023/01/25 07:40:02;;;;;;;12.27;7.95;;;;;;;14.30;50.89;101788.78;5073090;28;20123;-53
2023/01/25 07:42:32;;;;;;;12.45;8.60;;;;;;;14.36;51.02;101778.66;5073169;28;20139;-53
2023/01/25 07:45:01;;;;;;;12.73;8.40;;;;;;;14.45;50.87;101787.13;5072895;28;20040;-53
2023/01/25 07:47:29;;;;;;;10.73;7.95;;;;;;;14.50;50.73;101785.09;5072747;28;20430;-54
2023/01/25 07:49:58;;;;;;;11.60;8.05;;;;;;;14.57;50.85;101785.63;5072841;28;20433;-52
2023/01/25 07:52:27;;;;;;;11.50;7.90;;;;;;;14.65;50.64;101787.91;5072839;28;20080;-55
2023/01/25 07:54:58;;;;;;;12.00;8.25;;;;;;;14.67;50.67;101776.16;5072766;28;20094;-54
2023/01/25 07:57:27;;;;;;;10.90;8.20;;;;;;;14.79;50.53;101790.75;5072669;28;20068;-54
2023/01/25 07:59:55;;;;;;;9.60;7.75;;;;;;;14.86;50.60;101790.34;5072669;28;20055;-52
2023/01/25 08:02:25;;;;;;;10.75;7.72;;;;;;;14.96;50.57;101787.13;5072392;28;20120;-54
2023/01/25 08:04:53;;;;;;;11.77;8.60;;;;;;;15.04;50.38;101782.22;5072641;28;20044;-52
2023/01/25 08:07:22;;;;;;;10.88;7.85;;;;;;;15.07;50.26;101785.63;5072099;28;20048;-54
2023/01/25 08:09:51;;;;;;;11.07;7.57;;;;;;;15.12;50.27;101788.03;5072680;28;20417;-52
2023/01/25 08:12:19;;;;;;;10.73;7.72;;;;;;;15.08;50.25;101783.81;5072366;28;20048;-53
2023/01/25 08:14:48;;;;;;;10.52;8.07;;;;;;;15.12;50.21;101782.66;5071222;28;20440;-52
2023/01/25 08:17:16;;;;;;;11.90;8.25;;;;;;;15.10;50.38;101787.25;5072145;28;20048;-52
2023/01/25 08:19:46;;;;;;;10.73;7.50;;;;;;;15.09;50.23;101777.47;5072159;28;20094;-52
2023/01/25 08:22:14;;;;;;;11.15;8.10;;;;;;;15.07;50.15;101779.38;5072093;28;20052;-51
2023/01/25 08:24:42;;;;;;;10.82;7.97;;;;;;;15.07;50.10;101779.38;5072077;28;20058;-53
2023/01/25 08:27:10;;;;;;;12.13;8.25;;;;;;;15.05;50.14;101775.88;5072051;28;20063;-54
2023/01/25 08:29:39;;;;;;;11.90;8.30;;;;;;;15.03;50.10;101775.97;5071916;28;20080;-52
2023/01/25 08:32:07;;;;;;;11.50;8.15;;;;;;;15.01;50.22;101777.03;5072105;28;20057;-52
2023/01/25 08:34:36;;;;;;;11.02;7.88;;;;;;;15.00;50.12;101777.97;5071882;28;20044;-52
2023/01/25 08:37:05;;;;;;;10.55;7.50;;;;;;;14.98;50.12;101777.19;5071870;28;20098;-52
2023/01/25 08:39:40;;;;;;;11.07;8.10;;;;;;;14.94;50.10;101779.16;5071558;28;20493;-52
2023/01/25 08:42:08;;;;;;;10.35;7.65;;;;;;;14.89;50.15;101770.50;5071436;28;20132;-54
2023/01/25 08:44:36;;;;;;;12.00;7.68;;;;;;;14.86;50.18;101771.53;5071614;28;20133;-52
2023/01/25 08:47:04;;;;;;;9.95;7.57;;;;;;;14.86;50.12;101776.00;5071714;28;20040;-53
2023/01/25 08:49:34;;;;;;;11.57;7.95;;;;;;;14.81;49.97;101770.91;5071673;28;20101;-54
2023/01/25 08:52:02;;;;;;;11.35;8.25;;;;;;;14.78;50.00;101768.41;5071456;28;20178;-54
2023/01/25 08:54:32;;;;;;;10.05;7.45;;;;;;;14.76;50.01;101772.09;5071510;28;20124;-52
2023/01/25 08:57:01;;;;;;;11.50;8.20;;;;;;;14.72;50.13;101768.72;5071961;28;20072;-54
2023/01/25 08:59:29;;;;;;;11.30;8.38;;;;;;;14.66;50.07;101766.34;5071631;28;20616;-51
2023/01/25 09:01:57;;;;;;;10.40;8.00;;;;;;;14.65;50.11;101769.13;5071519;28;20044;-53
2023/01/25 09:04:27;;;;;;;11.60;8.10;;;;;;;14.61;50.14;101768.41;5071651;28;20048;-52
2023/01/25 09:06:55;;;;;;;10.57;7.82;;;;;;;14.56;49.94;101763.28;5071403;28;20072;-52
2023/01/25 09:09:24;;;;;;;12.57;8.50;;;;;;;14.53;50.00;101763.44;5071364;28;20051;-52
2023/01/25 09:11:54;;;;;;;10.50;7.68;;;;;;;14.49;49.95;101756.53;5071282;28;20078;-52
2023/01/25 09:14:23;;;;;;;12.90;8.45;;;;;;;14.49;49.79;101766.38;5071460;28;20481;-53
2023/01/25 09:16:51;;;;;;;10.00;7.55;;;;;;;14.42;50.02;101754.19;5071430;28;20052;-54
2023/01/25 09:19:19;;;;;;;10.35;7.80;;;;;;;14.43;49.87;101761.28;5074967;28;20524;-54
2023/01/25 09:21:48;;;;;;;11.13;8.13;;;;;;;14.37;49.82;101757.09;5075453;28;20460;-55
2023/01/25 09:24:16;;;;;;;10.15;7.50;;;;;;;14.32;49.80;101751.13;5075580;28;20044;-55
2023/01/25 09:26:44;;;;;;;11.52;8.15;;;;;;;14.33;49.74;101761.78;5075510;28;20048;-54
2023/01/25 09:29:27;;;;;;;12.10;8.10;;;;;;;14.28;49.90;101753.13;5075454;28;20044;-55
2023/01/25 09:31:55;;;;;;;11.63;7.90;;;;;;;14.27;49.68;101753.16;5075406;28;20036;-51
2023/01/25 09:34:23;;;;;;;11.05;8.32;;;;;;;14.24;49.84;101754.19;5075289;28;20115;-53
2023/01/25 09:36:52;;;;;;;11.18;7.50;;;;;;;14.21;49.90;101759.72;5075582;28;20055;-53
2023/01/25 09:39:20;;;;;;;11.77;7.53;;;;;;;14.18;49.80;101759.88;5075068;28;20048;-54
2023/01/25 09:42:31;;;;;;;11.55;7.25;;;;;;;14.17;49.88;101759.94;5075149;28;20109;-52
2023/01/25 09:45:15;;;;;;;11.38;7.20;;;;;;;14.14;49.86;101754.75;5074891;28;20379;-54
2023/01/25 09:47:52;;;;;;;11.68;7.53;;;;;;;14.07;50.05;101734.53;5074817;28;20050;-54
2023/01/25 09:50:31;;;;;;;10.23;7.68;;;;;;;14.09;49.90;101743.38;5074917;28;20048;-54
2023/01/25 09:53:30;;;;;;;10.63;7.50;;;;;;;14.07;49.97;101734.53;5074755;28;20040;-54
2023/01/25 09:56:02;;;;;;;10.13;7.65;;;;;;;14.04;49.92;101730.22;5074708;28;20068;-53
2023/01/25 09:58:35;;;;;;;11.07;7.65;;;;;;;14.01;50.11;101733.06;5074743;28;20044;-52
2023/01/25 10:01:16;;;;;;;9.88;7.43;;;;;;;13.99;49.95;101727.78;5074606;28;20041;-52
2023/01/25 10:03:55;;;;;;;10.73;7.55;;;;;;;13.97;49.90;101720.72;5074512;28;20123;-52
2023/01/25 10:06:27;;;;;;;11.38;7.93;;;;;;;13.94;49.94;101715.53;5074583;28;20048;-52
2023/01/25 10:09:07;;;;;;;10.77;7.70;;;;;;;13.88;50.03;101705.09;5074690;28;20048;-55
2023/01/25 10:11:38;;;;;;;10.57;7.63;;;;;;;13.89;50.18;101701.47;5074829;28;20098;-52
2023/01/25 10:14:13;;;;;;;11.20;7.68;;;;;;;13.85;49.97;101706.13;5074451;28;20040;-51
2023/01/25 10:16:57;;;;;;;10.73;7.75;;;;;;;13.85;50.05;101699.91;5074548;28;20045;-55
2023/01/25 10:19:34;;;;;;;10.73;7.45;;;;;;;13.83;50.27;101696.44;5074403;28;20106;-52
2023/01/25 10:22:11;;;;;;;11.77;7.57;;;;;;;13.82;50.32;101692.03;5074279;28;20051;-52
2023/01/25 10:25:00;;;;;;;9.85;6.82;;;;;;;13.79;50.15;101690.34;5074238;28;20048;-52
2023/01/25 10:27:37;;;;;;;10.00;7.35;;;;;;;13.77;50.12;101686.00;5074031;28;20140;-54
2023/01/25 10:30:26;;;;;;;10.23;7.20;;;;;;;13.76;50.31;101687.81;5073611;28;20070;-52
2023/01/25 10:32:59;;;;;;;9.82;6.88;;;;;;;13.73;50.37;101675.44;5073947;28;20512;-53
2023/01/25 10:35:34;;;;;;;9.73;7.10;;;;;;;13.67;50.19;101670.38;5074327;28;20048;-54
2023/01/25 10:38:14;;;;;;;9.23;6.95;;;;;;;13.69;50.25;101673.84;5073990;28;20040;-55
2023/01/25 10:40:46;;;;;;;11.82;7.82;;;;;;;13.67;49.98;101675.75;5073774;28;20048;-53
2023/01/25 10:43:18;;;;;;;11.27;7.38;;;;;;;13.66;50.00;101668.66;5073794;28;20044;-54
2023/01/25 10:45:47;;;;;;;10.30;7.28;;;;;;;13.64;50.09;101669.69;5073915;28;20123;-54
2023/01/25 10:48:21;;;;;;;10.82;7.25;;;;;;;13.58;50.24;101651.22;5074061;28;20178;-52
2023/01/25 10:50:52;;;;;;;9.77;6.88;;;;;;;13.62;50.33;101661.72;5073551;28;20051;-54
2023/01/25 10:53:27;;;;;;;9.77;6.95;;;;;;;13.59;50.31;101656.50;5073517;28;20106;-54
2023/01/25 10:56:00;;;;;;;10.73;7.05;;;;;;;13.59;50.38;101656.50;5073777;28;20048;-54
2023/01/25 10:58:34;;;;;;;10.18;6.85;;;;;;;13.58;50.23;101652.09;5073716;28;20408;-53
2023/01/25 11:01:05;;;;;;;10.35;7.00;;;;;;;13.57;50.17;101654.84;5073806;28;20110;-53
2023/01/25 11:03:38;;;;;;;10.10;6.63;;;;;;;13.54;50.37;101647.84;5073657;28;20094;-53
2023/01/25 11:06:07;;;;;;;9.32;7.03;;;;;;;13.52;50.49;101644.38;5073585;28;20047;-55
2023/01/25 11:08:37;;;;;;;9.30;6.60;;;;;;;13.51;50.22;101648.00;5073562;28;20349;-52
2023/01/25 11:11:25;;;;;;;8.93;6.45;;;;;;;13.50;50.27;101638.19;5073718;28;20094;-52
2023/01/25 11:13:56;;;;;;;8.50;6.70;;;;;;;13.49;50.54;101635.59;5073690;28;20489;-52
2023/01/25 11:16:34;;;;;;;9.98;6.78;;;;;;;13.46;50.54;101629.44;5073526;28;20497;-51
2023/01/25 11:19:24;;;;;;;9.50;6.90;;;;;;;13.46;50.43;101631.25;5073399;28;20041;-54
2023/01/25 11:21:54;;;;;;;9.18;6.40;;;;;;;13.41;50.38;101612.75;5073448;28;20049;-55
2023/01/25 11:24:26;;;;;;;10.30;6.88;;;;;;;13.43;50.44;101620.72;5073301;28;20525;-54
2023/01/25 11:27:13;;;;;;;10.05;6.60;;;;;;;13.37;50.40;101600.44;5073226;28;20074;-54
2023/01/25 11:29:41;;;;;;;8.18;6.30;;;;;;;13.38;50.60;101604.84;5073224;28;20401;-52
2023/01/25 11:32:22;;;;;;;10.98;6.85;;;;;;;13.39;50.53;101597.66;5073312;28;20090;-52
2023/01/25 11:34:51;;;;;;;10.77;7.40;;;;;;;13.38;50.42;101599.47;5073110;28;20445;-53
2023/01/25 11:37:32;;;;;;;9.75;6.57;;;;;;;13.38;50.52;101594.13;5073087;28;20045;-54